ADDS METAR Data INFO
IDs: Format: Raw Decoded Include TAF

Data at: 1359 UTC 17 Dec 2017

KHCO 171355Z AUTO 19006KT 10SM CLR M12/M14 A2996 RMK AO2
KHCO 171335Z AUTO 19004KT 10SM CLR M13/M14 A2997 RMK AO2
KHCO 171315Z AUTO 19005KT 10SM CLR M13/M14 A2997 RMK AO2
KHCO 171255Z AUTO 18005KT 10SM CLR M13/M14 A2997 RMK AO2
KHCO 171235Z AUTO 18005KT 10SM CLR M12/M14 A2998 RMK AO2
KHCO 171215Z AUTO 17006KT 10SM CLR M12/M13 A2997 RMK AO2
KHCO 171155Z AUTO 18005KT 10SM CLR M13/M14 A2996 RMK AO2
KHCO 171135Z AUTO 17006KT 10SM CLR M12/M14 A2996 RMK AO2
KHCO 171115Z AUTO 17006KT 10SM CLR M12/M14 A2997 RMK AO2
KHCO 171055Z AUTO 18006KT 10SM CLR M11/M13 A2998 RMK AO2
KHCO 171035Z AUTO 17005KT 10SM CLR M12/M13 A2998 RMK AO2
KHCO 171015Z AUTO 17005KT 10SM CLR M11/M12 A2999 RMK AO2
KHCO 170955Z AUTO 18005KT 10SM CLR M11/M12 A2999 RMK AO2
KHCO 170935Z AUTO 17006KT 10SM CLR M11/M12 A2999 RMK AO2
KHCO 170915Z AUTO 18007KT 10SM CLR M11/M12 A2999 RMK AO2
KHCO 170855Z AUTO 17006KT 10SM CLR M11/M12 A2999 RMK AO2
KHCO 170835Z AUTO 17006KT 10SM CLR M11/M13 A3000 RMK AO2
KHCO 170815Z AUTO 17006KT 10SM CLR M12/M13 A2999 RMK AO2
KHCO 170755Z AUTO 18005KT 10SM CLR M11/M13 A3000 RMK AO2
KHCO 170735Z AUTO 18006KT 10SM CLR M11/M12 A3000 RMK AO2
KHCO 170715Z AUTO 17006KT 10SM CLR M11/M12 A3000 RMK AO2
KHCO 170655Z AUTO 18006KT 10SM CLR M11/M12 A3000 RMK AO2
KHCO 170635Z AUTO 18005KT 10SM CLR M10/M11 A3001 RMK AO2
KHCO 170615Z AUTO 18007KT 10SM CLR M10/M11 A3001 RMK AO2
KHCO 170555Z AUTO 18007KT 10SM CLR M09/M11 A3001 RMK AO2
KHCO 170535Z AUTO 17007KT 7SM BKN001 M09/M11 A3001 RMK AO2
KHCO 170515Z AUTO 16007KT 5SM BR OVC001 M10/M11 A3001 RMK AO2
KHCO 170455Z AUTO 16008KT 7SM OVC001 M09/M11 A3001 RMK AO2
KHCO 170435Z AUTO 16009KT 5SM BR OVC001 M09/M11 A3000 RMK AO2
KHCO 170415Z AUTO 16008KT 10SM BKN001 M10/M12 A3000 RMK AO2
KHCO 170355Z AUTO 15007KT 7SM SCT001 M10/M11 A3001 RMK AO2
KHCO 170335Z AUTO 16007KT 10SM CLR M11/M12 A3001 RMK AO2
KHCO 170315Z AUTO 15008KT 7SM SCT007 M10/M12 A3001 RMK AO2
KHCO 170255Z AUTO 15007KT 5SM BR CLR M11/M12 A3001 RMK AO2
KHCO 170235Z AUTO 15007KT 7SM CLR M11/M12 A3001 RMK AO2
KHCO 170215Z AUTO 16009KT 7SM CLR M11/M12 A3001 RMK AO2
KHCO 170155Z AUTO 16009KT 5SM BR SCT001 M11/M12 A3001 RMK AO2
KHCO 170135Z AUTO 15006KT 4SM BR SCT001 BKN006 M11/M12 A3001 RMK AO2
KHCO 170115Z AUTO 15006KT 1/2SM FZFG BKN001 M12/M13 A3001 RMK AO2
KHCO 170055Z AUTO 00000KT 7SM CLR M11/M12 A3000 RMK AO2
KHCO 170035Z AUTO 00000KT 5SM BR CLR M09/M10 A2999 RMK AO2
KHCO 170015Z AUTO 00000KT 7SM CLR M08/M09 A2999 RMK AO2
KHCO 162355Z AUTO 00000KT 10SM CLR M07/M08 A2998 RMK AO2
KHCO 162335Z AUTO 00000KT 10SM CLR M07/M08 A2998 RMK AO2
KHCO 162315Z AUTO 36004KT 10SM BKN009 M06/M07 A2997 RMK AO2
KHCO 162255Z AUTO 32006KT 10SM OVC009 M05/M07 A2997 RMK AO2
KHCO 162235Z AUTO 32005KT 10SM OVC009 M05/M07 A2996 RMK AO2
KHCO 162215Z AUTO 30006KT 10SM OVC009 M05/M06 A2996 RMK AO2
KHCO 162155Z AUTO 27004KT 10SM OVC009 M05/M06 A2995 RMK AO2
KHCO 162135Z AUTO 00000KT 10SM OVC009 M05/M06 A2994 RMK AO2
KHCO 162115Z AUTO 00000KT 10SM OVC007 M06/M07 A2993 RMK AO2
KHCO 162055Z AUTO 00000KT 10SM OVC007 M06/M07 A2991 RMK AO2
KHCO 162035Z AUTO 00000KT 10SM OVC007 M05/M07 A2990 RMK AO2
KHCO 162015Z AUTO 00000KT 10SM BKN007 OVC012 M06/M07 A2990 RMK AO2
KHCO 161955Z AUTO 21003KT 10SM BKN007 OVC016 M06/M07 A2990 RMK AO2
KHCO 161935Z AUTO 18004KT 10SM BKN007 OVC016 M06/M07 A2989 RMK AO2
KHCO 161915Z AUTO 17004KT 10SM OVC007 M06/M08 A2989 RMK AO2
KHCO 161855Z AUTO 16005KT 10SM OVC007 M07/M08 A2989 RMK AO2
KHCO 161835Z AUTO 17005KT 10SM OVC007 M07/M08 A2989 RMK AO2
KHCO 161815Z AUTO 14005KT 10SM OVC007 M07/M08 A2989 RMK AO2
KHCO 161755Z AUTO 15006KT 10SM OVC007 M08/M09 A2989 RMK AO2
KHCO 161735Z AUTO 14007KT 7SM OVC007 M08/M09 A2989 RMK AO2
KHCO 161715Z AUTO 14006KT 10SM OVC007 M08/M09 A2989 RMK AO2
KHCO 161655Z AUTO 14006KT 10SM OVC009 M08/M09 A2989 RMK AO2
KHCO 161636Z AUTO 15007KT 10SM OVC011 M08/M09 A2988 RMK AO2
KHCO 161615Z AUTO 15008KT 10SM OVC013 M08/M09 A2987 RMK AO2
KHCO 161555Z AUTO 14007KT 7SM -SN BKN015 OVC030 M08/M10 A2986 RMK AO2
KHCO 161536Z AUTO 14007KT 4SM -SN BKN011 BKN017 OVC028 M08/M10 A2985 RMK AO2
KHCO 161515Z AUTO 13005KT 10SM OVC011 M08/M10 A2984 RMK AO2
KHCO 161455Z AUTO 12005KT 7SM OVC013 M09/M11 A2983 RMK AO2
KHCO 161435Z AUTO 11007KT 4SM -SN OVC013 M09/M11 A2981 RMK AO2
KHCO 161415Z AUTO 08005KT 4SM -SN OVC013 M09/M11 A2981 RMK AO2
KHCO 161355Z AUTO 10007KT 10SM OVC013 M09/M11 A2980 RMK AO2
KHCO 161335Z AUTO 10008KT 10SM OVC013 M09/M11 A2979 RMK AO2
KHCO 161315Z AUTO 09005KT 10SM OVC013 M09/M11 A2980 RMK AO2
KHCO 161255Z AUTO 11007KT 10SM OVC015 M09/M11 A2977 RMK AO2
KHCO 161235Z AUTO 11013KT 10SM OVC015 M09/M12 A2975 RMK AO2
KHCO 161215Z AUTO 11010KT 10SM OVC015 M09/M12 A2976 RMK AO2
KHCO 161155Z AUTO 10010KT 7SM OVC017 M09/M12 A2976 RMK AO2
KHCO 161135Z AUTO 10010KT 5SM BR OVC017 M09/M12 A2976 RMK AO2
KHCO 161115Z AUTO 11007KT 7SM OVC017 M09/M12 A2975 RMK AO2
KHCO 161056Z AUTO 11010KT 10SM OVC019 M09/M12 A2973 RMK AO2
KHCO 161035Z AUTO 12008KT 10SM OVC021 M09/M12 A2974 RMK AO2
KHCO 161015Z AUTO 11009G14KT 10SM OVC021 M09/M12 A2973 RMK AO2
KHCO 160956Z AUTO 11010KT 10SM OVC023 M09/M12 A2973 RMK AO2
KHCO 160935Z AUTO 10012KT 10SM OVC023 M09/M12 A2973 RMK AO2
KHCO 160915Z AUTO 10011G16KT 10SM OVC025 M09/M12 A2973 RMK AO2
KHCO 160855Z AUTO 10013KT 10SM OVC027 M09/M12 A2972 RMK AO2
KHCO 160835Z AUTO 10015G21KT 10SM BKN027 OVC033 M09/M11 A2970 RMK AO2
KHCO 160815Z AUTO 10014KT 10SM OVC027 M09/M11 A2969 RMK AO2
KHCO 160755Z AUTO 09012KT 10SM OVC033 M09/M11 A2970 RMK AO2
KHCO 160735Z AUTO 09014KT 10SM OVC037 M09/M11 A2970 RMK AO2
KHCO 160715Z AUTO 09014KT 10SM OVC037 M09/M11 A2970 RMK AO2
KHCO 160655Z AUTO 09013KT 10SM OVC041 M09/M11 A2968 RMK AO2
KHCO 160635Z AUTO 09012KT 10SM BKN041 OVC060 M09/M11 A2969 RMK AO2
KHCO 160616Z AUTO 09013KT 10SM BKN060 M09/M11 A2968 RMK AO2
KHCO 160555Z AUTO 09014KT 10SM CLR M09/M11 A2966 RMK AO2
KHCO 160535Z AUTO 09013KT 10SM CLR M08/M11 A2966 RMK AO2
KHCO 160515Z AUTO 09013KT 7SM CLR M08/M11 A2965 RMK AO2
KHCO 160455Z AUTO 10014G18KT 5SM -SN SCT020 BKN029 M08/M10 A2965 RMK AO2
KHCO 160435Z AUTO 10014KT 7SM -SN SCT015 SCT022 BKN029 M08/M10 A2965 RMK AO2
KHCO 160415Z AUTO 10015KT 4SM -SN BKN015 M08/M10 A2965 RMK AO2
KHCO 160355Z AUTO 10012KT 3SM -SN BKN018 OVC023 M08/M10 A2966 RMK AO2
KHCO 160335Z AUTO 10013KT 4SM -SN SCT017 OVC024 M08/M10 A2967 RMK AO2
KHCO 160315Z AUTO 10015KT 4SM -SN BKN017 OVC024 M08/M10 A2966 RMK AO2
KHCO 160255Z AUTO 10013KT 3SM -SN OVC015 M08/M10 A2966 RMK AO2
KHCO 160235Z AUTO 10013KT 2 1/2SM -SN OVC011 M08/M10 A2966 RMK AO2
KHCO 160215Z AUTO 10013KT 2SM -SN OVC009 M08/M10 A2967 RMK AO2